createdAt,value
2023-02-03T00:01:11.605Z,0.20
2023-02-03T00:03:40.587Z,0.20
2023-02-03T00:06:09.802Z,0.20
2023-02-03T00:08:39.391Z,0.20
2023-02-03T00:11:09.276Z,0.10
2023-02-03T00:13:38.265Z,0.20
2023-02-03T00:16:07.496Z,0.20
2023-02-03T00:18:35.877Z,0.20
2023-02-03T00:21:04.486Z,0.20
2023-02-03T00:23:32.919Z,0.20
2023-02-03T00:26:09.686Z,0.20
2023-02-03T00:28:38.208Z,0.30
2023-02-03T00:31:07.097Z,0.30
2023-02-03T00:33:35.536Z,0.30
2023-02-03T00:36:06.935Z,0.30
2023-02-03T00:38:35.356Z,0.40
2023-02-03T00:41:03.776Z,0.40
2023-02-03T00:43:33.974Z,0.40
2023-02-03T00:46:02.407Z,0.40
2023-02-03T00:48:31.104Z,0.50
2023-02-03T00:50:59.499Z,0.50
2023-02-03T00:53:27.910Z,0.50
2023-02-03T00:55:56.581Z,0.50
2023-02-03T00:58:25.020Z,0.50
2023-02-03T01:00:55.926Z,0.50
2023-02-03T01:03:24.468Z,0.50
2023-02-03T01:05:53.101Z,0.60
2023-02-03T01:08:21.495Z,0.60
2023-02-03T01:10:50.011Z,0.70
2023-02-03T01:13:18.384Z,0.80
2023-02-03T01:15:48.433Z,0.80
2023-02-03T01:18:18.252Z,0.90
2023-02-03T01:20:46.664Z,0.80
2023-02-03T01:23:15.066Z,0.80
2023-02-03T01:25:43.498Z,0.90
2023-02-03T01:28:11.957Z,0.90
2023-02-03T01:30:40.485Z,0.90
2023-02-03T01:33:08.889Z,1.00
2023-02-03T01:35:38.752Z,1.00
2023-02-03T01:38:07.661Z,1.00
2023-02-03T01:40:42.907Z,1.00
2023-02-03T01:43:11.777Z,1.00
2023-02-03T01:45:41.472Z,1.10
2023-02-03T01:48:10.044Z,1.20
2023-02-03T01:50:39.875Z,1.20
2023-02-03T01:53:11.867Z,1.30
2023-02-03T01:55:44.753Z,1.30
2023-02-03T01:58:16.249Z,1.40
2023-02-03T02:00:45.033Z,1.60
2023-02-03T02:03:14.793Z,1.70
2023-02-03T02:05:48.290Z,1.90
2023-02-03T02:08:19.615Z,1.80
2023-02-03T02:10:48.518Z,2.00
2023-02-03T02:13:18.564Z,2.00
2023-02-03T02:15:55.581Z,2.00
2023-02-03T02:18:40.712Z,2.00
2023-02-03T02:21:41.692Z,2.10
2023-02-03T02:24:35.345Z,2.00
2023-02-03T02:27:08.684Z,2.00
2023-02-03T02:30:16.130Z,2.00
2023-02-03T02:33:05.574Z,2.00
2023-02-03T02:35:49.396Z,2.00
2023-02-03T02:38:27.115Z,2.00
2023-02-03T02:41:01.251Z,2.00
2023-02-03T02:43:36.665Z,2.00
2023-02-03T02:46:11.239Z,2.00
2023-02-03T02:48:45.893Z,2.00
2023-02-03T02:51:17.029Z,1.90
2023-02-03T02:53:49.125Z,1.90
2023-02-03T02:56:20.188Z,1.90
2023-02-03T02:58:50.946Z,1.90
2023-02-03T03:01:19.731Z,1.80
2023-02-03T03:03:49.556Z,1.80
2023-02-03T03:06:19.467Z,1.80
2023-02-03T03:08:49.336Z,1.80
2023-02-03T03:11:18.867Z,1.90
2023-02-03T03:13:51.877Z,1.80
2023-02-03T03:16:25.289Z,1.80
2023-02-03T03:18:59.673Z,1.80
2023-02-03T03:21:33.591Z,1.80
2023-02-03T03:24:08.694Z,1.80
2023-02-03T03:26:43.095Z,1.80
2023-02-03T03:29:17.152Z,1.80
2023-02-03T03:31:47.031Z,1.80
2023-02-03T03:34:18.856Z,1.80
2023-02-03T03:36:51.674Z,1.80
2023-02-03T03:39:27.442Z,1.80
2023-02-03T03:42:03.929Z,1.90
2023-02-03T03:44:37.208Z,1.80
2023-02-03T03:47:13.463Z,1.90
2023-02-03T03:49:47.142Z,1.90
2023-02-03T03:52:21.117Z,1.90
2023-02-03T03:54:52.285Z,1.90
2023-02-03T03:57:26.478Z,1.90
2023-02-03T03:59:56.022Z,1.90
2023-02-03T04:02:25.782Z,1.90
2023-02-03T04:04:56.341Z,2.00
2023-02-03T04:07:25.990Z,2.00
2023-02-03T04:09:54.275Z,2.10
2023-02-03T04:12:24.839Z,2.10
2023-02-03T04:14:53.535Z,2.20
2023-02-03T04:17:22.128Z,2.20
2023-02-03T04:19:51.069Z,2.20
2023-02-03T04:22:21.371Z,2.30
2023-02-03T04:24:49.737Z,2.40
2023-02-03T04:27:18.309Z,2.50
2023-02-03T04:29:47.562Z,2.50
2023-02-03T04:32:16.383Z,2.60
2023-02-03T04:34:45.072Z,2.70
2023-02-03T04:37:13.679Z,2.60
2023-02-03T04:39:43.478Z,2.80
2023-02-03T04:42:11.971Z,2.80
2023-02-03T04:44:40.381Z,3.00
2023-02-03T04:47:08.779Z,3.10
2023-02-03T04:49:37.413Z,3.10
2023-02-03T04:52:06.346Z,3.30
2023-02-03T04:54:35.237Z,3.40
2023-02-03T04:57:05.654Z,3.50
2023-02-03T04:59:34.428Z,3.50
2023-02-03T05:02:04.183Z,3.70
2023-02-03T05:04:32.902Z,3.80
2023-02-03T05:07:01.350Z,3.80
2023-02-03T05:09:30.200Z,3.90
2023-02-03T05:11:58.846Z,4.00
2023-02-03T05:14:28.656Z,4.00
2023-02-03T05:16:56.996Z,4.00
2023-02-03T05:19:25.388Z,4.10
2023-02-03T05:21:54.111Z,4.10
2023-02-03T05:24:22.525Z,4.20
2023-02-03T05:26:51.028Z,4.20
2023-02-03T05:29:19.882Z,4.30
2023-02-03T05:31:50.182Z,4.40
2023-02-03T05:34:18.940Z,4.40
2023-02-03T05:36:48.053Z,4.60
2023-02-03T05:39:16.685Z,4.60
2023-02-03T05:41:53.334Z,4.80
2023-02-03T05:44:23.586Z,5.10
2023-02-03T05:46:55.263Z,5.10
2023-02-03T05:49:24.143Z,5.20
2023-02-03T05:51:53.959Z,5.20
2023-02-03T05:54:22.444Z,5.30
2023-02-03T05:56:51.271Z,5.30
2023-02-03T05:59:20.123Z,5.30
2023-02-03T06:01:48.831Z,5.40
2023-02-03T06:04:18.841Z,5.40
2023-02-03T06:06:48.068Z,5.40
2023-02-03T06:09:16.537Z,5.50
2023-02-03T06:11:45.853Z,5.50
2023-02-03T06:14:14.631Z,5.60
2023-02-03T06:16:43.317Z,5.60
2023-02-03T06:19:12.427Z,5.60
2023-02-03T06:21:43.048Z,5.60
2023-02-03T06:24:12.115Z,5.70
2023-02-03T06:26:40.531Z,5.60
2023-02-03T06:29:09.339Z,5.70
2023-02-03T06:31:37.877Z,5.70
2023-02-03T06:34:06.531Z,5.70
2023-02-03T06:36:35.106Z,5.80
2023-02-03T06:39:05.198Z,5.80
2023-02-03T06:41:33.976Z,5.90
2023-02-03T06:44:02.738Z,5.90
2023-02-03T06:46:32.400Z,5.90
2023-02-03T06:49:01.046Z,5.90
2023-02-03T06:51:29.993Z,5.90
2023-02-03T06:54:00.044Z,5.80
2023-02-03T06:56:29.867Z,5.90
2023-02-03T06:58:58.942Z,6.00
2023-02-03T07:01:27.737Z,6.00
2023-02-03T07:03:58.016Z,6.00
2023-02-03T07:06:29.234Z,6.00
2023-02-03T07:08:59.929Z,6.10
2023-02-03T07:11:31.000Z,6.00
2023-02-03T07:13:59.920Z,6.00
2023-02-03T07:16:29.012Z,6.10
2023-02-03T07:18:57.857Z,6.10
2023-02-03T07:21:26.360Z,6.10
2023-02-03T07:23:54.908Z,6.10
2023-02-03T07:26:25.377Z,6.10
2023-02-03T07:28:55.754Z,6.20
2023-02-03T07:31:24.280Z,6.20
2023-02-03T07:33:52.723Z,6.20
2023-02-03T07:36:21.187Z,6.20
2023-02-03T07:38:49.994Z,6.20
2023-02-03T07:41:18.598Z,6.10
2023-02-03T07:43:47.901Z,6.20
2023-02-03T07:46:17.790Z,6.20
2023-02-03T07:48:46.374Z,6.20
2023-02-03T07:51:14.835Z,6.20
2023-02-03T07:53:43.236Z,6.30
2023-02-03T07:56:12.519Z,6.30
2023-02-03T07:58:41.351Z,6.30
2023-02-03T08:01:15.173Z,6.30
2023-02-03T08:03:45.458Z,6.30
2023-02-03T08:06:14.087Z,6.30
2023-02-03T08:08:42.595Z,6.30
2023-02-03T08:11:11.253Z,6.20
2023-02-03T08:13:39.983Z,6.20
2023-02-03T08:16:08.747Z,6.20
2023-02-03T08:18:37.365Z,6.20
2023-02-03T08:21:07.509Z,6.20
2023-02-03T08:23:36.034Z,6.10
2023-02-03T08:26:05.061Z,6.10
2023-02-03T08:28:33.608Z,6.10
2023-02-03T08:31:02.179Z,6.10
2023-02-03T08:33:31.116Z,6.10
2023-02-03T08:36:01.210Z,6.10
2023-02-03T08:38:31.420Z,6.00
2023-02-03T08:41:00.366Z,6.00
2023-02-03T08:43:29.041Z,6.00
2023-02-03T08:45:57.620Z,5.90
2023-02-03T08:48:26.188Z,5.70
2023-02-03T08:50:54.917Z,5.70
2023-02-03T08:53:23.847Z,5.70
2023-02-03T08:55:54.051Z,5.70
2023-02-03T08:58:22.479Z,5.70
2023-02-03T09:00:53.242Z,5.70
2023-02-03T09:03:22.112Z,5.70
2023-02-03T09:05:50.777Z,5.70
2023-02-03T09:08:19.503Z,5.80
2023-02-03T09:10:48.052Z,5.70
2023-02-03T09:13:18.178Z,5.80
2023-02-03T09:15:46.622Z,5.80
2023-02-03T09:18:15.043Z,5.80
2023-02-03T09:20:43.738Z,5.80
2023-02-03T09:23:12.523Z,5.80
2023-02-03T09:25:43.070Z,5.80
2023-02-03T09:28:13.081Z,5.80
2023-02-03T09:30:42.914Z,5.80
2023-02-03T09:33:11.399Z,5.80
2023-02-03T09:35:40.582Z,5.80
2023-02-03T09:38:09.084Z,5.80
2023-02-03T09:40:39.725Z,5.80
2023-02-03T09:43:21.926Z,5.80
2023-02-03T09:45:51.779Z,5.80
2023-02-03T09:48:26.036Z,5.80
2023-02-03T09:50:55.417Z,5.90
2023-02-03T09:53:31.384Z,5.80
2023-02-03T09:56:00.864Z,5.80
2023-02-03T09:58:33.985Z,5.80
2023-02-03T10:01:09.353Z,5.80
2023-02-03T10:03:44.425Z,5.90
2023-02-03T10:06:21.614Z,5.90
2023-02-03T10:09:06.955Z,6.00
2023-02-03T10:11:53.600Z,6.00
2023-02-03T10:14:37.076Z,6.00
2023-02-03T10:17:20.379Z,6.00
2023-02-03T10:19:55.266Z,6.10
2023-02-03T10:22:28.804Z,6.00
2023-02-03T10:25:01.990Z,6.00
2023-02-03T10:27:31.278Z,5.90
2023-02-03T10:30:05.375Z,5.90
2023-02-03T10:32:36.054Z,5.80
2023-02-03T10:35:06.890Z,5.80
2023-02-03T10:37:39.303Z,5.80
2023-02-03T10:40:12.801Z,5.80
2023-02-03T10:42:58.991Z,5.80
2023-02-03T10:45:27.491Z,5.80
2023-02-03T10:47:58.459Z,5.90
2023-02-03T10:50:31.889Z,6.00
2023-02-03T10:53:23.396Z,5.90
2023-02-03T10:56:02.076Z,5.90
2023-02-03T10:58:33.625Z,5.90
2023-02-03T11:01:10.519Z,5.90
2023-02-03T11:03:43.307Z,5.90
2023-02-03T11:06:13.354Z,5.90
2023-02-03T11:08:44.637Z,5.90
2023-02-03T11:11:16.911Z,5.90
2023-02-03T11:13:45.686Z,5.90
2023-02-03T11:16:16.953Z,5.90
2023-02-03T11:18:56.898Z,5.90
2023-02-03T11:21:26.854Z,5.90
2023-02-03T11:24:01.867Z,5.90
2023-02-03T11:26:35.618Z,5.90
2023-02-03T11:29:08.158Z,6.00
2023-02-03T11:31:38.190Z,6.00
2023-02-03T11:34:17.637Z,6.00
2023-02-03T11:36:46.558Z,6.00
2023-02-03T11:39:29.392Z,6.00
2023-02-03T11:41:58.521Z,6.10
2023-02-03T11:44:31.043Z,6.10
2023-02-03T11:47:03.186Z,6.10
2023-02-03T11:50:04.194Z,6.10
2023-02-03T11:52:55.169Z,6.20
2023-02-03T11:55:34.809Z,6.20
2023-02-03T11:58:28.972Z,6.20
2023-02-03T12:01:07.675Z,6.30
2023-02-03T12:04:05.035Z,6.30
2023-02-03T12:07:01.710Z,6.30
2023-02-03T12:09:41.328Z,6.40
2023-02-03T12:12:38.502Z,6.40
2023-02-03T12:15:32.520Z,6.40
2023-02-03T12:18:16.346Z,6.50
2023-02-03T12:21:03.390Z,6.40
2023-02-03T12:23:43.634Z,6.50
2023-02-03T12:26:21.374Z,6.40
2023-02-03T12:28:58.181Z,6.50
2023-02-03T12:31:33.991Z,6.50
2023-02-03T12:34:13.889Z,6.50
2023-02-03T12:36:44.108Z,6.50
2023-02-03T12:39:21.237Z,6.50
2023-02-03T12:41:53.327Z,6.50
2023-02-03T12:44:26.970Z,6.60
2023-02-03T12:47:02.513Z,6.70
2023-02-03T12:49:41.601Z,6.70
2023-02-03T12:52:19.158Z,6.60
2023-02-03T12:54:56.256Z,6.60
2023-02-03T12:57:29.407Z,6.60
2023-02-03T13:00:11.747Z,6.60
2023-02-03T13:02:48.511Z,6.60
2023-02-03T13:05:25.220Z,6.60
2023-02-03T13:08:00.027Z,6.50
2023-02-03T13:10:38.371Z,6.60
2023-02-03T13:13:09.291Z,6.60
2023-02-03T13:15:41.680Z,4.60
2023-02-03T13:18:20.156Z,4.10
2023-02-03T13:20:48.968Z,4.00
2023-02-03T13:23:17.860Z,4.10
2023-02-03T13:26:02.859Z,4.20
2023-02-03T13:28:44.761Z,4.20
2023-02-03T13:31:30.350Z,4.30
2023-02-03T13:34:32.033Z,4.30
2023-02-03T13:37:34.614Z,4.50
2023-02-03T13:40:19.146Z,4.60
2023-02-03T13:42:55.283Z,4.70
2023-02-03T13:45:30.474Z,4.90
2023-02-03T13:48:07.627Z,4.90
2023-02-03T13:50:37.548Z,5.00
2023-02-03T13:53:09.393Z,5.10
2023-02-03T13:55:41.150Z,5.20
2023-02-03T13:58:23.223Z,5.30
2023-02-03T14:01:20.346Z,5.30
2023-02-03T14:03:48.905Z,5.40
2023-02-03T14:06:57.435Z,5.40
2023-02-03T14:09:42.387Z,5.50
2023-02-03T14:12:38.017Z,5.60
2023-02-03T14:15:23.686Z,5.60
2023-02-03T14:18:04.074Z,5.50
2023-02-03T14:20:51.257Z,5.60
2023-02-03T14:23:30.711Z,5.60
2023-02-03T14:26:01.487Z,5.70
2023-02-03T14:28:39.827Z,5.70
2023-02-03T14:31:21.715Z,5.70
2023-02-03T14:34:14.574Z,5.70
2023-02-03T14:36:54.968Z,5.80
2023-02-03T14:40:12.509Z,7.20
2023-02-03T14:43:10.558Z,7.60
2023-02-03T14:46:02.151Z,7.40
2023-02-03T14:48:47.183Z,7.50
2023-02-03T14:51:28.434Z,7.20
2023-02-03T14:54:17.535Z,6.70
2023-02-03T14:57:09.008Z,6.40
2023-02-03T14:59:44.871Z,6.30
2023-02-03T15:02:19.182Z,6.20
2023-02-03T15:04:50.858Z,6.10
2023-02-03T15:07:44.771Z,6.00
2023-02-03T15:10:17.708Z,6.10
2023-02-03T15:12:49.093Z,6.10
2023-02-03T15:15:26.321Z,6.00
2023-02-03T15:17:56.314Z,6.00
2023-02-03T15:20:34.584Z,6.00
2023-02-03T15:23:03.646Z,5.90
2023-02-03T15:25:33.259Z,5.80
2023-02-03T15:28:16.841Z,5.70
2023-02-03T15:30:46.757Z,5.70
2023-02-03T15:33:16.217Z,5.70
2023-02-03T15:35:47.673Z,5.70
2023-02-03T15:38:20.904Z,5.70
2023-02-03T15:40:53.281Z,5.70
2023-02-03T15:43:27.959Z,5.60
2023-02-03T15:46:03.638Z,5.50
2023-02-03T15:48:37.648Z,5.40
2023-02-03T15:51:12.529Z,5.40
2023-02-03T15:53:49.402Z,5.30
2023-02-03T15:56:36.409Z,5.10
2023-02-03T15:59:05.648Z,5.00
2023-02-03T16:01:35.042Z,4.90
2023-02-03T16:04:11.361Z,4.90
2023-02-03T16:06:44.975Z,4.80
2023-02-03T16:09:28.941Z,4.70
2023-02-03T16:12:15.818Z,4.50
2023-02-03T16:14:44.798Z,4.50
2023-02-03T16:17:29.228Z,4.50
2023-02-03T16:20:26.566Z,4.50
2023-02-03T16:23:05.889Z,4.60
2023-02-03T16:25:36.182Z,4.60
2023-02-03T16:28:34.178Z,4.50
2023-02-03T16:31:22.237Z,4.60
2023-02-03T16:34:09.202Z,4.70
2023-02-03T16:36:59.478Z,4.90
2023-02-03T16:39:46.903Z,5.10
2023-02-03T16:42:34.821Z,5.20
2023-02-03T16:45:21.389Z,5.20
2023-02-03T16:48:07.262Z,5.30
2023-02-03T16:50:53.845Z,5.40
2023-02-03T16:53:24.769Z,5.40
2023-02-03T16:55:56.463Z,5.50
2023-02-03T16:58:27.028Z,5.50
2023-02-03T17:01:00.101Z,5.50
2023-02-03T17:03:29.701Z,5.50
2023-02-03T17:05:58.571Z,5.60
2023-02-03T17:08:28.713Z,5.60
2023-02-03T17:11:05.451Z,5.60
2023-02-03T17:13:34.805Z,5.60
2023-02-03T17:16:08.640Z,5.70
2023-02-03T17:18:38.476Z,5.60
2023-02-03T17:21:07.584Z,5.60
2023-02-03T17:23:36.732Z,5.70
2023-02-03T17:26:08.396Z,5.80
2023-02-03T17:28:38.060Z,5.80
2023-02-03T17:31:08.553Z,5.80
2023-02-03T17:33:37.021Z,5.90
2023-02-03T17:36:07.905Z,5.90
2023-02-03T17:53:18.491Z,6.00
2023-02-03T17:58:17.961Z,6.00
2023-02-03T18:00:46.606Z,6.00
2023-02-03T18:03:15.034Z,5.90
2023-02-03T18:05:52.315Z,5.80
2023-02-03T18:08:25.289Z,5.70
2023-02-03T18:10:53.948Z,5.70
2023-02-03T18:13:26.127Z,5.60
2023-02-03T18:15:57.926Z,5.50
2023-02-03T18:18:26.729Z,5.30
2023-02-03T18:20:55.192Z,5.10
2023-02-03T18:23:23.696Z,4.90
2023-02-03T18:25:55.620Z,4.80
2023-02-03T18:28:25.841Z,4.70
2023-02-03T18:31:00.218Z,4.60
2023-02-03T18:33:29.137Z,4.50
2023-02-03T18:35:57.763Z,4.40
2023-02-03T18:38:26.897Z,4.40
2023-02-03T18:40:56.021Z,4.40
2023-02-03T18:43:25.937Z,4.40
2023-02-03T18:45:54.385Z,4.40
2023-02-03T18:48:23.177Z,4.50
2023-02-03T18:50:51.964Z,4.50
2023-02-03T18:53:20.435Z,4.60
2023-02-03T18:55:48.970Z,4.70
2023-02-03T18:58:17.714Z,4.80
2023-02-03T19:00:47.486Z,4.80
2023-02-03T19:03:16.328Z,5.00
2023-02-03T19:05:45.120Z,5.10
2023-02-03T19:08:14.779Z,5.10
2023-02-03T19:10:43.600Z,5.20
2023-02-03T19:13:12.714Z,5.20
2023-02-03T19:15:42.684Z,5.20
2023-02-03T19:18:12.915Z,5.20
2023-02-03T19:20:43.527Z,5.10
2023-02-03T19:23:13.610Z,5.10
2023-02-03T19:25:42.535Z,5.10
2023-02-03T19:28:17.758Z,5.20
2023-02-03T19:30:57.403Z,5.10
2023-02-03T19:33:29.945Z,5.10
2023-02-03T19:35:58.719Z,5.20
2023-02-03T19:38:27.175Z,5.20
2023-02-03T19:40:56.173Z,5.10
2023-02-03T19:43:25.463Z,5.10
2023-02-03T19:45:54.554Z,5.10
2023-02-03T19:48:23.091Z,5.20
2023-02-03T19:50:53.263Z,5.10
2023-02-03T19:53:24.294Z,5.00
2023-02-03T19:55:53.481Z,5.00
2023-02-03T19:58:23.780Z,5.00
2023-02-03T20:00:52.311Z,4.90
2023-02-03T20:03:22.713Z,4.80
2023-02-03T20:05:53.992Z,4.70
2023-02-03T20:08:22.516Z,4.60
2023-02-03T20:10:52.421Z,4.50
2023-02-03T20:13:21.463Z,4.40
2023-02-03T20:15:50.527Z,4.30
2023-02-03T20:18:18.971Z,4.30
2023-02-03T20:20:52.891Z,4.20
2023-02-03T20:23:21.801Z,4.20
2023-02-03T20:25:51.199Z,4.20
2023-02-03T20:28:19.990Z,4.20
2023-02-03T20:30:51.325Z,4.20
2023-02-03T20:33:20.526Z,4.20
2023-02-03T20:35:49.603Z,4.20
2023-02-03T20:38:20.052Z,4.10
2023-02-03T20:40:48.769Z,4.10
2023-02-03T20:43:19.833Z,4.10
2023-02-03T20:45:50.245Z,4.10
2023-02-03T20:48:22.304Z,4.00
2023-02-03T20:50:51.062Z,4.00
2023-02-03T20:53:23.167Z,4.00
2023-02-03T20:55:52.771Z,4.00
2023-02-03T20:58:25.654Z,4.00
2023-02-03T21:00:57.419Z,4.10
2023-02-03T21:03:44.504Z,4.10
2023-02-03T21:06:15.230Z,4.10
2023-02-03T21:08:45.883Z,4.10
2023-02-03T21:11:16.906Z,4.10
2023-02-03T21:13:46.418Z,4.10
2023-02-03T21:16:18.734Z,4.10
2023-02-03T21:18:50.583Z,4.10
2023-02-03T21:21:24.898Z,4.00
2023-02-03T21:23:55.785Z,4.10
2023-02-03T21:26:26.135Z,4.10
2023-02-03T21:28:56.499Z,4.10
2023-02-03T21:31:28.093Z,4.10
2023-02-03T21:33:57.830Z,4.10
2023-02-03T21:36:28.408Z,4.10
2023-02-03T21:39:00.657Z,4.10
2023-02-03T21:41:33.752Z,4.10
2023-02-03T21:44:02.574Z,4.20
2023-02-03T21:46:35.674Z,4.20
2023-02-03T21:49:05.071Z,4.20
2023-02-03T21:51:36.497Z,4.20
2023-02-03T21:54:30.321Z,4.20
2023-02-03T21:57:00.105Z,4.20
2023-02-03T21:59:30.445Z,4.20
2023-02-03T22:01:58.888Z,4.20
2023-02-03T22:04:30.352Z,4.20
2023-02-03T22:06:58.926Z,4.20
2023-02-03T22:09:28.813Z,4.20
2023-02-03T22:11:57.367Z,4.20
2023-02-03T22:14:25.861Z,4.30
2023-02-03T22:16:54.337Z,4.30
2023-02-03T22:19:22.813Z,4.30
2023-02-03T22:21:52.482Z,4.30
2023-02-03T22:24:21.128Z,4.40
2023-02-03T22:26:50.964Z,4.40
2023-02-03T22:29:19.458Z,4.40
2023-02-03T22:31:48.052Z,4.40
2023-02-03T22:34:17.277Z,4.40
2023-02-03T22:36:45.865Z,4.40
2023-02-03T22:39:14.370Z,4.40
2023-02-03T22:41:45.579Z,4.40
2023-02-03T22:44:16.232Z,4.40
2023-02-03T22:46:44.768Z,4.40
2023-02-03T22:49:13.198Z,4.30
2023-02-03T22:51:42.291Z,4.30
2023-02-03T22:54:10.956Z,4.40
2023-02-03T22:56:39.748Z,4.40
2023-02-03T22:59:08.600Z,4.40
2023-02-03T23:01:38.805Z,4.40
2023-02-03T23:04:07.468Z,4.40
2023-02-03T23:06:36.223Z,4.40
2023-02-03T23:09:04.986Z,4.40
2023-02-03T23:11:33.584Z,4.50
2023-02-03T23:14:02.862Z,4.50
2023-02-03T23:16:31.262Z,4.50
2023-02-03T23:19:01.550Z,4.50
2023-02-03T23:21:30.164Z,4.50
2023-02-03T23:23:58.979Z,4.50
2023-02-03T23:26:27.704Z,4.50
2023-02-03T23:28:56.219Z,4.60
2023-02-03T23:31:24.872Z,4.60
2023-02-03T23:34:07.232Z,4.50
2023-02-03T23:36:37.117Z,4.50
2023-02-03T23:39:06.405Z,4.50
2023-02-03T23:41:35.458Z,4.50
2023-02-03T23:44:04.126Z,4.40
2023-02-03T23:46:33.148Z,4.30
2023-02-03T23:49:01.720Z,4.30
2023-02-03T23:51:30.214Z,4.20
2023-02-03T23:54:00.424Z,4.10
2023-02-03T23:56:28.804Z,4.00
2023-02-03T23:58:57.308Z,3.90
